Time;durP1;ratioP1;P1;durP2;ratioP2;P2;SDS_P1;SDS_P2;PMS_P1;PMS_P2;Temp;Humidity;BMP_temperature;BMP_pressure;BME280_temperature;BME280_humidity;BME280_pressure;Samples;Min_cycle;Max_cycle;Signal;HPM_P1;HPM_P2
2022/06/18 00:00:13;;;;;;;3.25;2.10;;;;;;;;;;5099489;28;20118;-75
2022/06/18 00:02:41;;;;;;;4.55;2.42;;;;;;;;;;5105715;28;20471;-75
2022/06/18 00:05:08;;;;;;;4.05;2.50;;;;;;;;;;5102769;27;20016;-76
2022/06/18 00:07:38;;;;;;;3.53;2.40;;;;;;;;;;5099695;27;20024;-75
2022/06/18 00:10:04;;;;;;;4.18;2.40;;;;;;;;;;5099331;28;20142;-75
2022/06/18 00:15:20;;;;;;;5.32;2.40;;;;;;;;;;5099785;27;20038;-76
2022/06/18 00:17:46;;;;;;;4.75;2.50;;;;;;;;;;5116412;27;20102;-75
2022/06/18 00:20:13;;;;;;;5.03;2.53;;;;;;;;;;5098957;28;20031;-75
2022/06/18 00:22:41;;;;;;;5.00;2.60;;;;;;;;;;5102754;27;20030;-75
2022/06/18 00:25:25;;;;;;;4.40;2.58;;;;;;;;;;5097804;28;20476;-75
2022/06/18 00:27:50;;;;;;;5.85;2.67;;;;;;;;;;5099652;28;21192;-75
2022/06/18 00:30:20;;;;;;;4.07;2.58;;;;;;;;;;5095935;27;20039;-75
2022/06/18 00:32:46;;;;;;;5.15;2.63;;;;;;;;;;5099865;27;20146;-73
2022/06/18 00:35:12;;;;;;;4.82;2.50;;;;;;;;;;5096017;28;20428;-75
2022/06/18 00:37:38;;;;;;;3.90;2.45;;;;;;;;;;5097611;28;20101;-75
2022/06/18 00:40:38;;;;;;;4.75;2.80;;;;;;;;;;5107115;27;20027;-75
2022/06/18 00:43:20;;;;;;;3.95;2.58;;;;;;;;;;5102672;28;20093;-75
2022/06/18 00:45:45;;;;;;;3.38;2.30;;;;;;;;;;5097663;27;20032;-74
2022/06/18 00:48:38;;;;;;;3.95;2.67;;;;;;;;;;5100866;28;20157;-75
2022/06/18 00:51:13;;;;;;;6.60;2.83;;;;;;;;;;5099673;28;20042;-75
2022/06/18 00:53:43;;;;;;;4.60;2.47;;;;;;;;;;5101092;28;20048;-75
2022/06/18 00:56:19;;;;;;;6.47;2.63;;;;;;;;;;5100875;28;20081;-75
2022/06/18 00:58:58;;;;;;;3.50;2.53;;;;;;;;;;5101297;28;20028;-76
2022/06/18 01:01:29;;;;;;;4.50;2.63;;;;;;;;;;5098319;28;20027;-76
2022/06/18 01:03:55;;;;;;;6.82;2.78;;;;;;;;;;5102388;28;20499;-75
2022/06/18 01:06:27;;;;;;;4.43;2.60;;;;;;;;;;5101819;28;20036;-76
2022/06/18 01:09:06;;;;;;;5.07;3.00;;;;;;;;;;5099406;28;20023;-74
2022/06/18 01:11:35;;;;;;;5.20;2.67;;;;;;;;;;5093646;28;20077;-75
2022/06/18 01:14:04;;;;;;;3.30;2.70;;;;;;;;;;5098713;28;20050;-75
2022/06/18 01:16:31;;;;;;;5.55;3.40;;;;;;;;;;5098509;28;20027;-74
2022/06/18 01:18:57;;;;;;;5.35;3.03;;;;;;;;;;5099305;28;20058;-73
2022/06/18 01:21:46;;;;;;;4.40;3.10;;;;;;;;;;5097851;28;20024;-75
2022/06/18 01:24:38;;;;;;;5.38;3.08;;;;;;;;;;5097873;28;20114;-75
2022/06/18 01:27:04;;;;;;;5.03;3.15;;;;;;;;;;5099191;28;20028;-75
2022/06/18 01:29:30;;;;;;;5.10;2.83;;;;;;;;;;5097424;28;20059;-75
2022/06/18 01:31:55;;;;;;;7.07;3.17;;;;;;;;;;5100331;28;20474;-73
2022/06/18 01:34:21;;;;;;;4.18;3.22;;;;;;;;;;5094786;28;20093;-74
2022/06/18 01:36:46;;;;;;;4.75;3.17;;;;;;;;;;5101924;28;20171;-75
2022/06/18 01:39:19;;;;;;;5.60;3.20;;;;;;;;;;5100210;28;20036;-76
2022/06/18 01:41:51;;;;;;;5.93;3.13;;;;;;;;;;5100645;28;20429;-76
2022/06/18 01:44:45;;;;;;;4.07;2.95;;;;;;;;;;5097674;28;20074;-73
2022/06/18 01:47:27;;;;;;;5.13;3.30;;;;;;;;;;5092458;28;20118;-73
2022/06/18 01:50:00;;;;;;;;;;;;;;;;;;5101559;28;20032;-75
2022/06/18 01:52:30;;;;;;;;;;;;;;;;;;5100908;28;19919;-75
2022/06/18 01:54:59;;;;;;;5.38;3.15;;;;;;;;;;5102123;28;19926;-73
2022/06/18 01:57:32;;;;;;;6.45;3.47;;;;;;;;;;5098995;28;20602;-75
2022/06/18 02:00:07;;;;;;;4.70;3.20;;;;;;;;;;5101745;28;20383;-75
2022/06/18 02:02:32;;;;;;;7.18;3.45;;;;;;;;;;5099478;27;20032;-75
2022/06/18 02:04:57;;;;;;;7.60;3.53;;;;;;;;;;5106440;27;20038;-75
2022/06/18 02:07:23;;;;;;;6.38;3.90;;;;;;;;;;5105042;28;20463;-74
2022/06/18 02:10:08;;;;;;;6.47;4.10;;;;;;;;;;5107439;28;20054;-75
2022/06/18 02:12:38;;;;;;;5.50;4.18;;;;;;;;;;5104898;28;20383;-75
2022/06/18 02:15:29;;;;;;;4.95;3.58;;;;;;;;;;5102099;28;20023;-75
2022/06/18 02:17:58;;;;;;;4.75;3.58;;;;;;;;;;5100800;27;21690;-75
2022/06/18 02:20:27;;;;;;;4.60;3.40;;;;;;;;;;5107058;28;20036;-76
2022/06/18 02:22:54;;;;;;;5.00;3.53;;;;;;;;;;5100049;27;20523;-76
2022/06/18 02:25:23;;;;;;;7.07;4.00;;;;;;;;;;5098671;27;21607;-74
2022/06/18 02:27:54;;;;;;;7.32;3.85;;;;;;;;;;5096927;27;20472;-75
2022/06/18 02:30:23;;;;;;;5.22;3.30;;;;;;;;;;5096333;27;20059;-76
2022/06/18 02:33:06;;;;;;;7.38;4.05;;;;;;;;;;5099475;27;20036;-75
2022/06/18 02:35:32;;;;;;;6.57;4.13;;;;;;;;;;5115211;27;20041;-75
2022/06/18 02:37:59;;;;;;;5.75;3.78;;;;;;;;;;5100050;27;20040;-76
2022/06/18 02:40:30;;;;;;;5.30;3.75;;;;;;;;;;5096693;27;20028;-75
2022/06/18 02:42:59;;;;;;;6.10;4.05;;;;;;;;;;5098970;27;20375;-76
2022/06/18 02:45:28;;;;;;;6.50;3.90;;;;;;;;;;5102160;28;20476;-73
2022/06/18 02:47:56;;;;;;;9.40;4.40;;;;;;;;;;5105014;27;20023;-76
2022/06/18 02:50:23;;;;;;;5.88;4.03;;;;;;;;;;5100603;28;20798;-73
2022/06/18 02:52:52;;;;;;;6.07;4.13;;;;;;;;;;5103348;27;20399;-73
2022/06/18 02:55:29;;;;;;;7.13;4.43;;;;;;;;;;5100114;28;20068;-75
2022/06/18 02:58:00;;;;;;;5.13;4.20;;;;;;;;;;5103658;27;20028;-74
2022/06/18 03:00:25;;;;;;;7.63;4.78;;;;;;;;;;5096022;28;20032;-74
2022/06/18 03:02:51;;;;;;;6.65;4.00;;;;;;;;;;5107027;27;20026;-73
2022/06/18 03:05:20;;;;;;;6.10;4.20;;;;;;;;;;5103916;27;20019;-76
2022/06/18 03:07:45;;;;;;;6.57;4.45;;;;;;;;;;5106441;27;20394;-73
2022/06/18 03:12:54;;;;;;;7.15;4.53;;;;;;;;;;5099905;27;20038;-75
2022/06/18 03:15:20;;;;;;;8.18;4.60;;;;;;;;;;5099912;28;20415;-76
2022/06/18 03:17:45;;;;;;;6.57;4.63;;;;;;;;;;5103120;28;20490;-75
2022/06/18 03:20:15;;;;;;;7.07;4.90;;;;;;;;;;5102366;28;20039;-75
2022/06/18 03:22:41;;;;;;;7.57;4.65;;;;;;;;;;5103466;27;20042;-75
2022/06/18 03:25:06;;;;;;;7.18;4.63;;;;;;;;;;5099126;27;20035;-75
2022/06/18 03:27:32;;;;;;;7.00;5.10;;;;;;;;;;5102538;28;20027;-75
2022/06/18 03:29:57;;;;;;;8.45;4.68;;;;;;;;;;5110750;28;20081;-74
2022/06/18 03:32:23;;;;;;;10.05;5.18;;;;;;;;;;5105009;28;20062;-74
2022/06/18 03:34:48;;;;;;;6.80;4.68;;;;;;;;;;5101491;28;20024;-75
2022/06/18 03:37:13;;;;;;;7.10;4.57;;;;;;;;;;5104219;28;20087;-75
2022/06/18 03:39:39;;;;;;;6.32;4.70;;;;;;;;;;5100056;27;20038;-75
2022/06/18 03:42:04;;;;;;;7.82;4.57;;;;;;;;;;5102271;27;20024;-76
2022/06/18 03:44:30;;;;;;;9.43;5.00;;;;;;;;;;5105506;28;20684;-75
2022/06/18 03:46:57;;;;;;;7.30;5.05;;;;;;;;;;5101192;27;20081;-73
2022/06/18 03:49:26;;;;;;;6.38;5.30;;;;;;;;;;5107063;28;20022;-73
2022/06/18 03:51:53;;;;;;;7.25;5.13;;;;;;;;;;5104425;28;20027;-76
2022/06/18 03:54:19;;;;;;;7.13;5.38;;;;;;;;;;5104576;28;20134;-75
2022/06/18 03:56:44;;;;;;;6.75;5.05;;;;;;;;;;5099392;28;20555;-75
2022/06/18 03:59:11;;;;;;;6.60;5.40;;;;;;;;;;5101875;28;20032;-75
2022/06/18 04:01:40;;;;;;;7.80;5.47;;;;;;;;;;5102333;28;23014;-75
2022/06/18 04:04:06;;;;;;;6.40;5.72;;;;;;;;;;5101809;28;20026;-75
2022/06/18 04:06:31;;;;;;;8.10;5.20;;;;;;;;;;5102887;27;20538;-75
2022/06/18 04:08:57;;;;;;;7.43;5.78;;;;;;;;;;5105682;28;20106;-76
2022/06/18 04:11:22;;;;;;;9.60;5.70;;;;;;;;;;5101155;28;20034;-76
2022/06/18 04:13:48;;;;;;;8.60;5.18;;;;;;;;;;5102631;28;20028;-75
2022/06/18 04:16:13;;;;;;;8.82;5.35;;;;;;;;;;5103718;28;20024;-76
2022/06/18 04:18:38;;;;;;;6.93;5.35;;;;;;;;;;5102654;28;20019;-75
2022/06/18 04:21:04;;;;;;;7.93;5.30;;;;;;;;;;5102505;28;20411;-75
2022/06/18 04:23:30;;;;;;;9.43;5.22;;;;;;;;;;5097249;28;20023;-75
2022/06/18 04:25:56;;;;;;;9.43;5.47;;;;;;;;;;5104293;27;20035;-76
2022/06/18 04:28:21;;;;;;;7.75;5.15;;;;;;;;;;5098592;28;20476;-75
2022/06/18 04:30:47;;;;;;;7.30;5.25;;;;;;;;;;5102446;28;20034;-76
2022/06/18 04:33:13;;;;;;;10.98;4.43;;;;;;;;;;5102203;27;20059;-74
2022/06/18 04:35:38;;;;;;;5.68;4.63;;;;;;;;;;5103303;28;20030;-73
2022/06/18 04:38:05;;;;;;;8.20;5.40;;;;;;;;;;5103093;28;20040;-75
2022/06/18 04:40:32;;;;;;;8.07;5.03;;;;;;;;;;5102790;28;20031;-75
2022/06/18 04:43:06;;;;;;;9.82;4.45;;;;;;;;;;5099042;27;20023;-76
2022/06/18 04:45:32;;;;;;;6.72;5.03;;;;;;;;;;5099484;27;20032;-75
2022/06/18 04:47:58;;;;;;;6.82;4.20;;;;;;;;;;5099286;28;20031;-76
2022/06/18 04:50:28;;;;;;;7.03;4.85;;;;;;;;;;5100159;28;20032;-76
2022/06/18 04:52:53;;;;;;;6.57;4.82;;;;;;;;;;5103069;28;20031;-73
2022/06/18 04:55:19;;;;;;;6.28;5.00;;;;;;;;;;5102385;28;20364;-75
2022/06/18 04:57:44;;;;;;;8.18;5.53;;;;;;;;;;5098331;28;20024;-75
2022/06/18 05:00:11;;;;;;;8.80;4.97;;;;;;;;;;5097843;28;20107;-73
2022/06/18 05:02:37;;;;;;;9.73;5.38;;;;;;;;;;5106743;28;20024;-75
2022/06/18 05:05:05;;;;;;;7.65;5.32;;;;;;;;;;5101549;28;20080;-76
2022/06/18 05:07:31;;;;;;;7.40;5.28;;;;;;;;;;5101040;28;20023;-75
2022/06/18 05:09:56;;;;;;;7.60;5.30;;;;;;;;;;5101419;28;20031;-73
2022/06/18 05:12:21;;;;;;;8.30;5.30;;;;;;;;;;5100204;28;20023;-75
2022/06/18 05:14:47;;;;;;;10.45;5.78;;;;;;;;;;5104962;28;20032;-75
2022/06/18 05:17:18;;;;;;;8.23;5.97;;;;;;;;;;5101051;28;20118;-73
2022/06/18 05:19:43;;;;;;;8.68;6.00;;;;;;;;;;5097884;28;21433;-73
2022/06/18 05:22:10;;;;;;;8.38;6.30;;;;;;;;;;5103332;28;20051;-74
2022/06/18 05:24:35;;;;;;;8.60;6.57;;;;;;;;;;5093978;28;20024;-75
2022/06/18 05:27:01;;;;;;;9.23;6.72;;;;;;;;;;5099527;28;20024;-75
2022/06/18 05:29:27;;;;;;;8.35;6.53;;;;;;;;;;5101949;28;20023;-73
2022/06/18 05:31:53;;;;;;;7.40;5.80;;;;;;;;;;5102758;28;20471;-75
2022/06/18 05:34:18;;;;;;;8.80;6.43;;;;;;;;;;5105951;27;20411;-76
2022/06/18 05:36:44;;;;;;;11.10;6.50;;;;;;;;;;5108732;27;20035;-75
2022/06/18 05:39:14;;;;;;;8.30;6.40;;;;;;;;;;5099047;27;20035;-74
2022/06/18 05:41:40;;;;;;;9.77;6.75;;;;;;;;;;5104498;28;20533;-76
2022/06/18 05:44:05;;;;;;;9.13;6.88;;;;;;;;;;5105949;28;20023;-73
2022/06/18 05:46:31;;;;;;;11.50;7.03;;;;;;;;;;5100068;28;20030;-73
2022/06/18 05:48:56;;;;;;;9.00;7.22;;;;;;;;;;5107290;27;20016;-76
2022/06/18 05:51:22;;;;;;;7.85;6.53;;;;;;;;;;5100424;28;20068;-75
2022/06/18 05:53:48;;;;;;;9.73;6.38;;;;;;;;;;5109080;28;20549;-75
2022/06/18 05:56:14;;;;;;;9.20;6.32;;;;;;;;;;5102586;28;20023;-73
2022/06/18 05:58:39;;;;;;;7.65;6.13;;;;;;;;;;5104248;28;20104;-73
2022/06/18 06:01:04;;;;;;;7.93;5.82;;;;;;;;;;5102656;27;20734;-72
2022/06/18 06:03:30;;;;;;;11.48;5.90;;;;;;;;;;5099112;27;20050;-75
2022/06/18 06:05:56;;;;;;;10.68;5.82;;;;;;;;;;5099655;27;20028;-75
2022/06/18 06:08:21;;;;;;;12.43;7.25;;;;;;;;;;5103758;28;20060;-75
2022/06/18 06:13:31;;;;;;;11.55;5.80;;;;;;;;;;5102481;27;20406;-76
2022/06/18 06:15:56;;;;;;;9.30;5.38;;;;;;;;;;5106155;28;20106;-76
2022/06/18 06:18:23;;;;;;;10.98;5.50;;;;;;;;;;5094878;28;20020;-75
2022/06/18 06:20:51;;;;;;;6.95;5.25;;;;;;;;;;5105916;28;20501;-75
2022/06/18 06:23:16;;;;;;;7.75;4.78;;;;;;;;;;5106059;28;20024;-75
2022/06/18 06:25:44;;;;;;;9.52;5.60;;;;;;;;;;5104776;27;20031;-74
2022/06/18 06:28:21;;;;;;;7.88;5.53;;;;;;;;;;5109229;27;20032;-75
2022/06/18 06:30:48;;;;;;;9.00;5.72;;;;;;;;;;5107468;28;20043;-76
2022/06/18 06:33:14;;;;;;;9.50;5.45;;;;;;;;;;5103038;28;20057;-75
2022/06/18 06:35:39;;;;;;;10.30;5.82;;;;;;;;;;5106966;28;20023;-75
2022/06/18 06:38:05;;;;;;;8.52;5.55;;;;;;;;;;5102724;28;20127;-74
2022/06/18 06:40:32;;;;;;;10.00;6.30;;;;;;;;;;5104447;28;20027;-76
2022/06/18 06:42:58;;;;;;;10.27;6.00;;;;;;;;;;5106036;28;20032;-76
2022/06/18 06:45:31;;;;;;;9.98;5.95;;;;;;;;;;5100937;27;20028;-76
2022/06/18 06:47:57;;;;;;;10.40;6.28;;;;;;;;;;5108804;27;20720;-75
2022/06/18 06:50:24;;;;;;;8.20;5.80;;;;;;;;;;5104147;28;20511;-73
2022/06/18 06:52:50;;;;;;;9.73;6.15;;;;;;;;;;5107050;28;20031;-73
2022/06/18 06:58:01;;;;;;;9.57;6.50;;;;;;;;;;5106984;28;20031;-73
2022/06/18 07:00:27;;;;;;;10.35;6.40;;;;;;;;;;5101876;27;20023;-76
2022/06/18 07:02:53;;;;;;;9.00;7.05;;;;;;;;;;5102583;27;20031;-75
2022/06/18 07:05:18;;;;;;;11.10;6.43;;;;;;;;;;5100668;27;20035;-76
2022/06/18 07:07:44;;;;;;;9.30;6.45;;;;;;;;;;5097402;27;20020;-75
2022/06/18 07:10:10;;;;;;;10.55;6.28;;;;;;;;;;5101494;27;20028;-74
2022/06/18 07:12:36;;;;;;;9.23;6.63;;;;;;;;;;5106054;28;20499;-75
2022/06/18 07:15:03;;;;;;;9.80;6.78;;;;;;;;;;5108025;27;20024;-73
2022/06/18 07:17:29;;;;;;;14.20;7.38;;;;;;;;;;5109216;27;20023;-74
2022/06/18 07:19:54;;;;;;;11.07;6.57;;;;;;;;;;5104977;28;20117;-74
2022/06/18 07:22:20;;;;;;;11.32;7.28;;;;;;;;;;5103716;28;20020;-74
2022/06/18 07:24:45;;;;;;;10.10;6.50;;;;;;;;;;5102707;27;20137;-75
2022/06/18 07:27:11;;;;;;;11.15;7.03;;;;;;;;;;5106739;27;20028;-75
2022/06/18 07:29:36;;;;;;;10.07;6.75;;;;;;;;;;5106768;27;20028;-75
2022/06/18 07:32:06;;;;;;;10.05;6.97;;;;;;;;;;5109766;27;20046;-75
2022/06/18 07:34:31;;;;;;;11.50;7.20;;;;;;;;;;5104652;27;20031;-75
2022/06/18 07:36:57;;;;;;;9.32;6.90;;;;;;;;;;5110410;28;20051;-76
2022/06/18 07:39:23;;;;;;;10.77;6.95;;;;;;;;;;5103789;28;20468;-76
2022/06/18 07:41:53;;;;;;;11.60;7.10;;;;;;;;;;5105757;28;20023;-76
2022/06/18 07:44:19;;;;;;;11.10;7.32;;;;;;;;;;5108460;28;20027;-75
2022/06/18 07:46:45;;;;;;;9.57;6.20;;;;;;;;;;5103054;28;20028;-75
2022/06/18 07:49:11;;;;;;;11.07;7.38;;;;;;;;;;5107472;28;20028;-75
2022/06/18 07:51:37;;;;;;;9.93;6.72;;;;;;;;;;5108227;28;20066;-75
2022/06/18 07:54:02;;;;;;;13.15;7.90;;;;;;;;;;5094098;27;20027;-76
2022/06/18 07:56:28;;;;;;;10.77;6.90;;;;;;;;;;5100550;27;20032;-74
2022/06/18 07:58:53;;;;;;;12.40;7.03;;;;;;;;;;5102788;27;20486;-75
2022/06/18 08:01:19;;;;;;;9.52;6.78;;;;;;;;;;5101301;27;20059;-76
2022/06/18 08:03:44;;;;;;;11.68;7.47;;;;;;;;;;5103264;27;20027;-74
2022/06/18 08:06:10;;;;;;;10.02;7.63;;;;;;;;;;5100267;27;20153;-76
2022/06/18 08:08:35;;;;;;;11.45;7.45;;;;;;;;;;5099037;28;20023;-76
2022/06/18 08:11:02;;;;;;;13.30;7.53;;;;;;;;;;5111328;27;20031;-76
2022/06/18 08:13:28;;;;;;;9.13;7.50;;;;;;;;;;5095760;27;20073;-75
2022/06/18 08:15:53;;;;;;;12.27;7.10;;;;;;;;;;5097748;27;20513;-76
2022/06/18 08:18:19;;;;;;;12.25;7.35;;;;;;;;;;5094873;27;20031;-77
2022/06/18 08:20:44;;;;;;;11.70;7.80;;;;;;;;;;5102582;28;20020;-76
2022/06/18 08:23:10;;;;;;;14.75;7.68;;;;;;;;;;5095956;28;20028;-75
2022/06/18 08:25:39;;;;;;;11.52;8.07;;;;;;;;;;5100257;28;20118;-76
2022/06/18 08:28:05;;;;;;;14.50;8.00;;;;;;;;;;5099335;28;20024;-75
2022/06/18 08:30:31;;;;;;;10.25;7.07;;;;;;;;;;5093409;28;20100;-76
2022/06/18 08:32:56;;;;;;;11.50;7.20;;;;;;;;;;5094936;28;20031;-74
2022/06/18 08:35:22;;;;;;;13.68;7.80;;;;;;;;;;5102521;28;20102;-76
2022/06/18 08:37:47;;;;;;;10.77;7.25;;;;;;;;;;5102406;27;20043;-74
2022/06/18 08:40:55;;;;;;;12.55;7.90;;;;;;;;;;5094170;28;20138;-75
2022/06/18 08:43:32;;;;;;;14.27;7.25;;;;;;;;;;5099132;28;20054;-74
2022/06/18 08:46:13;;;;;;;13.18;8.05;;;;;;;;;;5097567;28;20019;-76
2022/06/18 08:49:04;;;;;;;10.05;7.47;;;;;;;;;;5104552;28;20027;-75
2022/06/18 08:51:57;;;;;;;12.38;7.32;;;;;;;;;;5098064;28;20032;-76
2022/06/18 08:54:31;;;;;;;15.48;8.18;;;;;;;;;;5078308;28;20613;-77
2022/06/18 08:57:23;;;;;;;12.90;7.20;;;;;;;;;;5103568;28;20421;-75
2022/06/18 08:59:56;;;;;;;13.95;8.38;;;;;;;;;;5099572;28;20548;-77
2022/06/18 09:02:32;;;;;;;12.60;7.40;;;;;;;;;;5099553;27;20395;-77
2022/06/18 09:05:35;;;;;;;11.00;7.90;;;;;;;;;;5103250;28;20043;-75
2022/06/18 09:08:21;;;;;;;13.18;7.80;;;;;;;;;;5097977;28;20027;-76
2022/06/18 09:11:11;;;;;;;12.48;7.40;;;;;;;;;;5103941;28;20042;-75
2022/06/18 09:13:43;;;;;;;11.30;7.40;;;;;;;;;;5100334;28;20028;-77
2022/06/18 09:16:13;;;;;;;11.65;7.65;;;;;;;;;;5103132;28;20042;-75
2022/06/18 09:18:55;;;;;;;12.40;6.90;;;;;;;;;;5104913;28;20037;-76
2022/06/18 09:21:30;;;;;;;9.90;6.50;;;;;;;;;;5101067;28;20028;-75
2022/06/18 09:24:02;;;;;;;12.75;7.10;;;;;;;;;;5097965;27;20123;-76
2022/06/18 09:26:50;;;;;;;12.25;7.15;;;;;;;;;;5104036;27;20089;-75
2022/06/18 09:29:34;;;;;;;11.13;7.32;;;;;;;;;;5098658;28;20034;-76
2022/06/18 09:32:05;;;;;;;15.43;7.55;;;;;;;;;;5101069;27;20099;-75
2022/06/18 09:34:49;;;;;;;11.52;7.22;;;;;;;;;;5102644;27;20041;-75
2022/06/18 09:37:33;;;;;;;10.93;7.10;;;;;;;;;;5099572;27;20048;-74
2022/06/18 09:40:00;;;;;;;13.07;8.05;;;;;;;;;;5093323;27;20046;-74
2022/06/18 09:42:36;;;;;;;10.23;6.63;;;;;;;;;;5103689;27;20031;-75
2022/06/18 09:45:32;;;;;;;10.45;6.63;;;;;;;;;;5094647;27;20123;-74
2022/06/18 09:48:01;;;;;;;7.68;5.28;;;;;;;;;;5092866;27;20044;-73
2022/06/18 09:50:40;;;;;;;9.43;5.72;;;;;;;;;;5087078;27;20020;-75
2022/06/18 09:53:12;;;;;;;9.50;6.22;;;;;;;;;;5097713;27;20089;-74
2022/06/18 09:55:48;;;;;;;12.90;7.30;;;;;;;;;;5100692;28;20062;-74
2022/06/18 09:58:22;;;;;;;9.55;6.82;;;;;;;;;;5097043;28;20089;-74
2022/06/18 10:00:50;;;;;;;10.65;5.80;;;;;;;;;;5105580;28;20027;-74
2022/06/18 10:08:54;;;;;;;12.50;6.22;;;;;;;;;;5102946;28;20210;-74
2022/06/18 10:11:22;;;;;;;9.90;5.93;;;;;;;;;;5104343;28;20038;-74
2022/06/18 10:14:14;;;;;;;11.77;6.18;;;;;;;;;;5098516;27;20058;-73
2022/06/18 10:17:04;;;;;;;11.88;5.30;;;;;;;;;;5093348;27;20077;-75
2022/06/18 10:19:52;;;;;;;8.15;5.32;;;;;;;;;;5098059;27;20539;-74
2022/06/18 10:22:32;;;;;;;10.50;6.45;;;;;;;;;;5102679;28;20528;-73
2022/06/18 10:25:06;;;;;;;12.27;6.30;;;;;;;;;;5100965;27;20088;-75
2022/06/18 10:27:38;;;;;;;9.32;5.38;;;;;;;;;;5094567;27;20028;-74
2022/06/18 10:30:05;;;;;;;10.60;5.85;;;;;;;;;;5104235;28;20043;-74
2022/06/18 10:32:30;;;;;;;11.63;7.00;;;;;;;;;;5098135;28;20089;-74
2022/06/18 10:35:01;;;;;;;10.00;5.78;;;;;;;;;;5102163;27;20035;-73
2022/06/18 10:37:40;;;;;;;9.07;5.47;;;;;;;;;;5096783;27;20063;-74
2022/06/18 10:40:23;;;;;;;10.70;6.63;;;;;;;;;;5102566;27;20079;-76
2022/06/18 10:42:49;;;;;;;10.40;6.53;;;;;;;;;;5103535;28;20031;-76
2022/06/18 10:45:39;;;;;;;10.05;5.40;;;;;;;;;;5101133;28;20038;-75
2022/06/18 10:48:14;;;;;;;11.05;5.43;;;;;;;;;;5102327;28;20479;-74
2022/06/18 10:50:49;;;;;;;8.55;4.95;;;;;;;;;;5106472;28;20472;-75
2022/06/18 10:53:17;;;;;;;7.15;5.50;;;;;;;;;;5097155;28;20035;-75
2022/06/18 10:55:43;;;;;;;14.07;6.82;;;;;;;;;;5102542;28;20024;-74
2022/06/18 10:58:15;;;;;;;9.40;5.63;;;;;;;;;;5101893;28;20395;-74
2022/06/18 11:00:53;;;;;;;10.63;4.70;;;;;;;;;;5112117;28;20035;-75
2022/06/18 11:03:25;;;;;;;9.52;5.47;;;;;;;;;;5105022;27;20058;-74
2022/06/18 11:05:50;;;;;;;11.85;5.05;;;;;;;;;;5105353;28;20436;-75
2022/06/18 11:08:27;;;;;;;8.05;4.75;;;;;;;;;;5108858;28;20027;-74
2022/06/18 11:11:13;;;;;;;8.32;4.10;;;;;;;;;;5103950;27;20043;-76
2022/06/18 11:13:42;;;;;;;11.20;5.05;;;;;;;;;;5096869;27;20019;-75
2022/06/18 11:16:17;;;;;;;10.15;4.45;;;;;;;;;;5107127;28;20050;-73
2022/06/18 11:18:56;;;;;;;9.38;4.95;;;;;;;;;;5102161;28;20031;-75
2022/06/18 11:21:35;;;;;;;10.35;4.75;;;;;;;;;;5102923;27;20092;-76
2022/06/18 11:24:06;;;;;;;8.15;5.22;;;;;;;;;;5099959;28;20306;-73
2022/06/18 11:26:32;;;;;;;7.57;3.97;;;;;;;;;;5103854;28;20028;-74
2022/06/18 11:29:04;;;;;;;9.35;4.68;;;;;;;;;;5105613;27;20038;-75
2022/06/18 11:31:33;;;;;;;9.07;3.85;;;;;;;;;;5106336;28;20556;-76
2022/06/18 11:34:05;;;;;;;15.18;4.80;;;;;;;;;;5100115;28;20031;-74
2022/06/18 11:36:32;;;;;;;9.80;4.30;;;;;;;;;;5098372;28;20377;-74
2022/06/18 11:38:59;;;;;;;9.32;3.70;;;;;;;;;;5105685;27;20026;-74
2022/06/18 11:41:44;;;;;;;8.20;4.38;;;;;;;;;;5106004;27;20031;-75
2022/06/18 11:44:17;;;;;;;10.93;4.70;;;;;;;;;;5101220;28;20491;-75
2022/06/18 11:46:48;;;;;;;9.57;5.03;;;;;;;;;;5102392;27;20050;-73
2022/06/18 11:49:27;;;;;;;9.73;4.20;;;;;;;;;;5100783;28;20012;-74
2022/06/18 11:52:16;;;;;;;9.43;4.93;;;;;;;;;;5098451;28;20035;-74
2022/06/18 11:55:23;;;;;;;10.25;4.75;;;;;;;;;;5106448;28;20094;-74
2022/06/18 11:58:19;;;;;;;10.05;4.85;;;;;;;;;;5096290;28;20042;-75
2022/06/18 12:00:55;;;;;;;10.68;5.03;;;;;;;;;;5104198;28;20132;-73
2022/06/18 12:03:35;;;;;;;8.68;4.55;;;;;;;;;;5101481;27;20128;-76
2022/06/18 12:06:04;;;;;;;9.43;4.97;;;;;;;;;;5102793;28;20447;-75
2022/06/18 12:08:31;;;;;;;8.73;4.13;;;;;;;;;;5109347;28;20024;-76
2022/06/18 12:11:13;;;;;;;7.68;4.70;;;;;;;;;;5108501;28;20020;-74
2022/06/18 12:13:41;;;;;;;10.43;4.93;;;;;;;;;;5103741;28;20027;-73
2022/06/18 12:16:35;;;;;;;11.98;5.15;;;;;;;;;;5103493;28;20118;-75
2022/06/18 12:19:19;;;;;;;9.02;4.82;;;;;;;;;;5101035;28;22451;-74
2022/06/18 12:22:05;;;;;;;11.98;5.65;;;;;;;;;;5101898;28;20031;-75
2022/06/18 12:24:45;;;;;;;9.15;5.00;;;;;;;;;;5100741;28;20020;-73
2022/06/18 12:27:21;;;;;;;12.10;5.25;;;;;;;;;;5104944;28;20027;-75
2022/06/18 12:29:50;;;;;;;9.73;4.72;;;;;;;;;;5092179;27;20028;-73
2022/06/18 12:32:43;;;;;;;9.07;4.25;;;;;;;;;;5098473;27;20479;-72
2022/06/18 12:35:19;;;;;;;9.20;4.75;;;;;;;;;;5100199;28;20085;-76
2022/06/18 12:38:10;;;;;;;10.00;4.50;;;;;;;;;;5103233;28;20629;-73
2022/06/18 12:41:06;;;;;;;9.65;5.13;;;;;;;;;;5099868;28;20030;-74
2022/06/18 12:43:37;;;;;;;13.27;5.20;;;;;;;;;;5107660;28;20053;-76
2022/06/18 12:46:15;;;;;;;8.13;4.85;;;;;;;;;;5100451;28;20399;-74
2022/06/18 12:49:03;;;;;;;11.82;5.53;;;;;;;;;;5099017;28;20397;-74
2022/06/18 12:51:49;;;;;;;9.77;4.82;;;;;;;;;;5104929;28;20042;-75
2022/06/18 12:54:17;;;;;;;10.00;5.00;;;;;;;;;;5094541;28;20023;-73
2022/06/18 12:57:17;;;;;;;10.98;5.45;;;;;;;;;;5095419;28;20034;-74
2022/06/18 13:00:26;;;;;;;7.78;4.63;;;;;;;;;;5100271;28;20023;-74
2022/06/18 13:03:03;;;;;;;8.75;4.35;;;;;;;;;;5100978;28;20516;-76
2022/06/18 13:05:49;;;;;;;9.45;4.95;;;;;;;;;;5101711;28;20039;-74
2022/06/18 13:08:30;;;;;;;9.45;5.07;;;;;;;;;;5101222;28;20477;-73
2022/06/18 13:10:58;;;;;;;11.70;5.00;;;;;;;;;;5121491;28;20028;-75
2022/06/18 13:13:44;;;;;;;12.18;5.18;;;;;;;;;;5106752;28;20110;-73
2022/06/18 13:16:19;;;;;;;9.52;4.35;;;;;;;;;;5109112;28;20028;-76
2022/06/18 13:18:53;;;;;;;15.02;5.25;;;;;;;;;;5106352;28;20023;-75
2022/06/18 13:21:19;;;;;;;7.60;4.03;;;;;;;;;;5105546;28;20488;-74
2022/06/18 13:29:38;;;;;;;10.88;4.65;;;;;;;;;;5106430;28;20473;-73
2022/06/18 13:32:29;;;;;;;8.90;4.13;;;;;;;;;;5110111;28;20394;-76
2022/06/18 13:35:13;;;;;;;7.43;4.47;;;;;;;;;;5107504;28;20475;-74
2022/06/18 13:38:11;;;;;;;8.40;4.30;;;;;;;;;;5108615;28;20041;-74
2022/06/18 13:40:49;;;;;;;9.85;4.60;;;;;;;;;;5105948;28;20080;-75
2022/06/18 13:43:47;;;;;;;9.60;4.10;;;;;;;;;;5103942;28;20032;-74
2022/06/18 13:46:27;;;;;;;7.93;4.43;;;;;;;;;;5082692;28;20436;-75
2022/06/18 13:49:16;;;;;;;8.25;4.07;;;;;;;;;;5111217;28;20015;-74
2022/06/18 13:51:43;;;;;;;11.93;4.32;;;;;;;;;;5109913;28;20030;-76
2022/06/18 13:54:12;;;;;;;9.85;4.05;;;;;;;;;;5110367;28;20373;-75
2022/06/18 13:56:41;;;;;;;7.65;4.43;;;;;;;;;;5111622;28;20103;-74
2022/06/18 13:59:17;;;;;;;8.23;4.40;;;;;;;;;;5102848;28;20016;-75
2022/06/18 14:01:46;;;;;;;13.38;4.88;;;;;;;;;;5107229;27;20480;-73
2022/06/18 14:04:29;;;;;;;7.60;4.22;;;;;;;;;;5109939;28;20111;-75
2022/06/18 14:06:59;;;;;;;11.15;4.40;;;;;;;;;;5103915;28;20089;-75
2022/06/18 14:09:28;;;;;;;9.38;4.45;;;;;;;;;;5112148;28;20015;-74
2022/06/18 14:12:01;;;;;;;11.30;4.28;;;;;;;;;;5108140;28;20027;-76
2022/06/18 14:14:32;;;;;;;8.77;4.57;;;;;;;;;;5101054;28;20476;-76
2022/06/18 14:17:12;;;;;;;10.93;4.63;;;;;;;;;;5102305;28;20107;-75
2022/06/18 14:19:59;;;;;;;9.50;4.22;;;;;;;;;;5106654;28;20030;-73
2022/06/18 14:22:28;;;;;;;7.28;4.03;;;;;;;;;;5107892;28;20067;-74
2022/06/18 14:24:56;;;;;;;10.32;4.45;;;;;;;;;;5105353;28;20030;-73
2022/06/18 14:27:42;;;;;;;10.13;4.10;;;;;;;;;;5099056;28;20216;-74
2022/06/18 14:30:24;;;;;;;9.23;4.05;;;;;;;;;;5106035;28;20027;-75
2022/06/18 14:32:59;;;;;;;8.18;3.78;;;;;;;;;;5112672;28;20023;-75
2022/06/18 14:35:34;;;;;;;7.10;3.45;;;;;;;;;;5117714;27;20107;-75
2022/06/18 14:38:02;;;;;;;10.02;4.10;;;;;;;;;;5104638;28;20074;-76
2022/06/18 14:41:34;;;;;;;10.38;3.92;;;;;;;;;;5113438;28;20115;-74
2022/06/18 14:43:32;;;;;;;6.60;3.93;;;;;;;;;;5113701;28;20037;-74
2022/06/18 14:46:19;;;;;;;7.15;3.72;;;;;;;;;;5106490;28;20027;-75
2022/06/18 14:49:13;;;;;;;9.75;4.07;;;;;;;;;;5107602;28;20043;-73
2022/06/18 14:52:16;;;;;;;7.30;3.70;;;;;;;;;;5112550;28;20542;-73
2022/06/18 14:55:02;;;;;;;8.38;4.28;;;;;;;;;;5109788;28;20102;-74
2022/06/18 14:57:49;;;;;;;8.88;4.10;;;;;;;;;;5112750;28;20080;-76
2022/06/18 15:00:29;;;;;;;6.13;3.10;;;;;;;;;;5106241;28;20035;-74
2022/06/18 15:03:01;;;;;;;7.05;2.92;;;;;;;;;;5110132;28;20032;-75
2022/06/18 15:05:32;;;;;;;7.13;2.47;;;;;;;;;;5098803;28;20503;-75
2022/06/18 15:08:18;;;;;;;5.47;2.92;;;;;;;;;;5107922;28;20016;-75
2022/06/18 15:10:52;;;;;;;6.00;2.70;;;;;;;;;;5102041;28;20413;-74
2022/06/18 15:13:18;;;;;;;5.20;2.53;;;;;;;;;;5100315;28;20031;-73
2022/06/18 15:18:35;;;;;;;6.70;2.55;;;;;;;;;;5105913;28;20039;-74
2022/06/18 15:21:33;;;;;;;5.55;2.40;;;;;;;;;;5098608;28;20020;-74
2022/06/18 15:24:15;;;;;;;3.95;2.40;;;;;;;;;;5109781;28;20023;-76
2022/06/18 15:26:47;;;;;;;6.78;2.53;;;;;;;;;;5112102;28;20383;-73
2022/06/18 15:29:21;;;;;;;6.45;2.10;;;;;;;;;;5110922;28;20061;-74
2022/06/18 15:31:46;;;;;;;4.78;2.10;;;;;;;;;;5110477;28;20503;-74
2022/06/18 15:34:26;;;;;;;5.22;2.17;;;;;;;;;;5108730;28;20056;-73